Time;durP1;ratioP1;P1;durP2;ratioP2;P2;SDS_P1;SDS_P2;PMS_P1;PMS_P2;Temp;Humidity;BMP_temperature;BMP_pressure;BME280_temperature;BME280_humidity;BME280_pressure;Samples;Min_cycle;Max_cycle;Signal;HPM_P1;HPM_P2
2023/09/14 00:00:35;;;;;;;6.80;4.43;;;;;;;12.10;100.00;102182.41;5052585;28;20130;-48
2023/09/14 00:03:02;;;;;;;9.05;4.80;;;;;;;11.75;100.00;102127.59;5052562;28;20433;-48
2023/09/14 00:05:28;;;;;;;6.28;5.05;;;;;;;11.72;100.00;102133.78;5051033;28;20028;-47
2023/09/14 00:07:54;;;;;;;9.18;4.80;;;;;;;11.65;100.00;102128.59;5051475;28;20432;-48
2023/09/14 00:10:19;;;;;;;12.20;4.93;;;;;;;11.91;100.00;102179.19;5052345;28;20040;-49
2023/09/14 00:12:44;;;;;;;11.00;5.30;;;;;;;11.96;100.00;102187.06;5051258;28;20051;-51
2023/09/14 00:15:10;;;;;;;6.72;5.03;;;;;;;11.70;100.00;102148.75;5052144;28;20036;-47
2023/09/14 00:17:35;;;;;;;11.05;5.60;;;;;;;11.93;100.00;102193.25;5052212;28;20076;-52
2023/09/14 00:20:00;;;;;;;9.95;4.90;;;;;;;11.92;100.00;102196.78;5052147;28;20036;-48
2023/09/14 00:22:26;;;;;;;7.80;4.95;;;;;;;11.55;100.00;102142.84;5050803;28;20045;-47
2023/09/14 00:24:52;;;;;;;10.70;5.13;;;;;;;11.52;100.00;102141.13;5052405;28;20480;-49
2023/09/14 00:27:17;;;;;;;6.53;5.13;;;;;;;11.88;100.00;102197.72;5052306;28;20041;-49
2023/09/14 00:29:43;;;;;;;9.25;5.20;;;;;;;11.58;100.00;102129.59;5050472;28;20029;-52
2023/09/14 00:32:08;;;;;;;9.73;5.40;;;;;;;11.48;100.00;102130.63;5052046;28;20033;-48
2023/09/14 00:34:33;;;;;;;7.93;5.07;;;;;;;11.83;100.00;102178.44;5051939;28;20036;-48
2023/09/14 00:36:59;;;;;;;11.38;5.32;;;;;;;11.91;100.00;102199.47;5051748;28;20148;-49
2023/09/14 00:39:24;;;;;;;11.00;5.60;;;;;;;11.87;100.00;102184.56;5049654;28;20127;-48
2023/09/14 00:41:49;;;;;;;8.40;5.20;;;;;;;11.76;100.00;102174.19;5050450;28;20107;-48
2023/09/14 00:44:15;;;;;;;7.47;4.82;;;;;;;11.39;100.00;102123.75;5051622;28;20465;-47
2023/09/14 00:46:40;;;;;;;8.88;4.93;;;;;;;11.43;100.00;102127.22;5051732;28;20029;-50
2023/09/14 00:49:06;;;;;;;9.18;4.97;;;;;;;11.48;100.00;102135.91;5051712;28;20037;-46
2023/09/14 00:51:32;;;;;;;8.93;5.20;;;;;;;11.70;100.00;102172.50;5051854;28;20473;-46
2023/09/14 00:53:58;;;;;;;11.10;5.43;;;;;;;11.80;100.00;102194.34;5051554;28;20029;-50
2023/09/14 00:56:26;;;;;;;7.82;5.50;;;;;;;11.77;100.00;102189.09;5046128;28;20038;-51
2023/09/14 00:58:52;;;;;;;12.30;5.63;;;;;;;11.39;100.00;102125.50;5031954;28;20025;-50
2023/09/14 01:01:17;;;;;;;8.88;5.45;;;;;;;11.40;100.00;102130.75;5014198;28;20044;-48
2023/09/14 01:03:43;;;;;;;7.47;5.78;;;;;;;11.35;100.00;102121.19;5030316;28;20045;-50
2023/09/14 01:06:08;;;;;;;9.15;5.80;;;;;;;11.40;100.00;102138.69;5031719;28;20033;-47
2023/09/14 01:08:34;;;;;;;11.00;5.60;;;;;;;11.65;100.00;102192.78;5031790;28;20427;-46
2023/09/14 01:11:01;;;;;;;9.07;5.97;;;;;;;11.32;100.00;102124.75;5030418;28;20341;-48
2023/09/14 01:13:32;;;;;;;11.48;5.80;;;;;;;11.65;100.00;102203.31;5041911;28;20130;-47
2023/09/14 01:16:07;;;;;;;10.05;5.18;;;;;;;11.21;100.00;102113.47;5051560;28;20086;-47
2023/09/14 01:18:47;;;;;;;10.75;5.32;;;;;;;11.34;100.00;102137.88;5032233;28;20048;-46
2023/09/14 01:21:47;;;;;;;9.15;5.82;;;;;;;11.66;100.00;102198.91;5030378;28;20361;-46
2023/09/14 01:24:38;;;;;;;10.57;5.40;;;;;;;11.64;100.00;102192.81;5030431;28;20033;-48
2023/09/14 01:27:04;;;;;;;8.55;5.80;;;;;;;11.61;100.00;102188.47;5031894;28;20037;-46
2023/09/14 01:29:29;;;;;;;10.68;5.72;;;;;;;11.63;100.00;102189.28;5031457;28;20037;-48
2023/09/14 01:31:54;;;;;;;9.00;6.13;;;;;;;11.28;100.00;102125.69;5030938;28;20033;-47
2023/09/14 01:34:21;;;;;;;8.93;5.55;;;;;;;11.65;100.00;102183.97;5037550;28;20437;-48
2023/09/14 01:36:52;;;;;;;11.98;6.00;;;;;;;11.66;100.00;102186.63;5051426;28;20083;-47
2023/09/14 01:39:19;;;;;;;8.55;6.35;;;;;;;11.60;100.00;102181.44;5049737;28;20560;-47
2023/09/14 01:41:45;;;;;;;12.20;6.00;;;;;;;11.56;100.00;102174.44;5052028;28;20503;-47
2023/09/14 01:44:11;;;;;;;9.65;6.05;;;;;;;11.16;100.00;102104.75;5053983;28;20049;-48
2023/09/14 01:46:37;;;;;;;10.13;5.45;;;;;;;11.34;100.00;102122.94;5053897;28;20292;-50
2023/09/14 01:49:02;;;;;;;10.82;6.05;;;;;;;11.71;100.00;102184.81;5053926;28;20537;-49
2023/09/14 01:51:28;;;;;;;10.60;5.93;;;;;;;11.74;100.00;102182.13;5053948;28;20055;-47
2023/09/14 01:53:54;;;;;;;9.70;6.90;;;;;;;11.42;100.00;102118.41;5054839;28;20533;-48
2023/09/14 01:56:19;;;;;;;10.82;6.72;;;;;;;11.78;100.00;102178.53;5054797;28;20123;-48
2023/09/14 01:58:44;;;;;;;11.48;6.55;;;;;;;11.76;100.00;102176.84;5054991;28;20097;-49
2023/09/14 02:01:10;;;;;;;11.60;6.93;;;;;;;11.60;100.00;102138.34;5054987;28;20037;-47
2023/09/14 02:03:35;;;;;;;11.25;6.60;;;;;;;11.37;100.00;102106.22;5054816;28;20041;-48
2023/09/14 02:06:03;;;;;;;8.52;5.97;;;;;;;11.69;100.00;102168.13;5054727;28;20033;-48
2023/09/14 02:08:30;;;;;;;8.52;6.70;;;;;;;11.35;100.00;102111.53;5053094;28;20044;-46
2023/09/14 02:10:55;;;;;;;11.60;6.20;;;;;;;11.73;100.00;102182.16;5053670;28;20033;-47
2023/09/14 02:13:21;;;;;;;9.70;6.07;;;;;;;11.70;100.00;102172.50;5054422;28;20036;-47
2023/09/14 02:15:46;;;;;;;10.05;5.97;;;;;;;11.69;100.00;102170.78;5054440;28;20037;-46
2023/09/14 02:18:11;;;;;;;8.40;5.72;;;;;;;11.66;100.00;102162.88;5054500;28;20083;-47
2023/09/14 02:20:38;;;;;;;10.32;6.75;;;;;;;11.66;100.00;102162.00;5054760;28;20040;-48
2023/09/14 02:23:04;;;;;;;10.02;6.28;;;;;;;11.64;100.00;102167.31;5054385;28;20059;-48
2023/09/14 02:25:30;;;;;;;8.43;6.30;;;;;;;11.27;100.00;102097.56;5052293;28;20041;-47
2023/09/14 02:27:55;;;;;;;8.23;5.75;;;;;;;11.58;100.00;102163.91;5053085;28;20037;-48
2023/09/14 02:30:20;;;;;;;11.82;6.55;;;;;;;11.55;100.00;102156.03;5054456;28;20029;-46
2023/09/14 02:32:46;;;;;;;12.93;6.82;;;;;;;11.51;100.00;102157.84;5054531;28;20036;-47
2023/09/14 02:35:11;;;;;;;9.65;5.85;;;;;;;11.48;100.00;102163.16;5054063;28;20029;-48
2023/09/14 02:37:36;;;;;;;9.18;6.70;;;;;;;11.45;100.00;102159.69;5053901;28;20131;-48
2023/09/14 02:40:03;;;;;;;13.90;7.28;;;;;;;11.43;100.00;102157.09;5054030;28;20505;-49
2023/09/14 02:42:28;;;;;;;12.77;6.85;;;;;;;11.40;100.00;102154.50;5052809;28;20373;-48
2023/09/14 02:44:53;;;;;;;13.32;7.47;;;;;;;11.34;100.00;102151.94;5051635;28;20036;-48
2023/09/14 02:47:19;;;;;;;10.88;7.07;;;;;;;11.27;100.00;102145.00;5052485;28;20033;-50
2023/09/14 02:49:44;;;;;;;9.98;6.70;;;;;;;11.34;100.00;102166.88;5054619;28;20056;-51
2023/09/14 02:52:09;;;;;;;12.80;6.78;;;;;;;11.28;100.00;102160.81;5053639;28;20036;-50
2023/09/14 02:54:35;;;;;;;13.07;6.88;;;;;;;11.23;100.00;102152.13;5035695;28;20069;-52
2023/09/14 02:57:00;;;;;;;11.65;7.78;;;;;;;11.23;100.00;102157.38;5053556;28;20123;-50
2023/09/14 02:59:25;;;;;;;13.23;7.32;;;;;;;11.16;100.00;102146.94;5054062;28;20064;-52
2023/09/14 03:01:51;;;;;;;10.27;6.47;;;;;;;10.85;100.00;102092.94;5052513;28;20033;-51
2023/09/14 03:04:16;;;;;;;10.55;7.10;;;;;;;11.20;100.00;102156.56;5053756;28;20056;-48
2023/09/14 03:06:41;;;;;;;8.52;6.97;;;;;;;10.87;100.00;102109.56;5052195;28;20447;-52
2023/09/14 03:09:07;;;;;;;10.63;6.93;;;;;;;11.18;100.00;102147.78;5052122;28;20041;-49
2023/09/14 03:11:32;;;;;;;8.23;6.88;;;;;;;11.02;100.00;102127.81;5053856;28;20051;-50
2023/09/14 03:13:58;;;;;;;9.90;6.13;;;;;;;10.77;100.00;102077.22;5053458;28;20121;-47
2023/09/14 03:16:23;;;;;;;9.38;6.70;;;;;;;11.07;100.00;102140.03;5053536;28;20044;-49
2023/09/14 03:18:48;;;;;;;9.50;6.70;;;;;;;11.14;100.00;102148.72;5052255;28;20025;-49
2023/09/14 03:21:27;;;;;;;9.20;6.80;;;;;;;11.06;100.00;102137.44;5053374;28;20049;-48
2023/09/14 03:23:53;;;;;;;9.77;6.55;;;;;;;11.06;100.00;102133.00;5053423;28;20025;-50
2023/09/14 03:26:19;;;;;;;13.23;7.15;;;;;;;10.67;100.00;102079.13;5052086;28;20029;-51
2023/09/14 03:28:48;;;;;;;8.32;6.47;;;;;;;11.03;100.00;102138.31;5053321;28;20021;-50
2023/09/14 03:31:13;;;;;;;9.48;7.45;;;;;;;11.06;100.00;102140.91;5052008;28;20068;-48
2023/09/14 03:33:38;;;;;;;11.88;6.88;;;;;;;11.07;100.00;102147.06;5053261;28;20065;-51
2023/09/14 03:36:04;;;;;;;11.75;6.38;;;;;;;11.08;100.00;102151.44;5051711;28;20032;-47
2023/09/14 03:38:30;;;;;;;11.27;6.82;;;;;;;11.08;100.00;102148.81;5053145;28;20033;-50
2023/09/14 03:40:55;;;;;;;12.82;7.25;;;;;;;11.06;100.00;102147.97;5053091;28;20056;-52
2023/09/14 03:43:20;;;;;;;10.32;6.53;;;;;;;10.93;100.00;102128.81;5051526;28;20040;-48
2023/09/14 03:45:46;;;;;;;11.55;7.10;;;;;;;10.91;100.00;102124.47;5052883;28;20502;-49
2023/09/14 03:48:12;;;;;;;9.45;7.03;;;;;;;11.05;100.00;102138.31;5052779;28;20396;-47
2023/09/14 03:50:37;;;;;;;12.85;6.57;;;;;;;11.01;100.00;102129.56;5051393;28;20060;-49
2023/09/14 03:53:03;;;;;;;15.77;6.47;;;;;;;10.63;100.00;102073.91;5051761;28;20035;-48
2023/09/14 03:55:29;;;;;;;12.75;7.28;;;;;;;10.58;100.00;102070.47;5052690;28;20037;-49
2023/09/14 03:57:54;;;;;;;11.25;6.85;;;;;;;10.95;100.00;102136.69;5051372;28;20039;-50
2023/09/14 04:00:20;;;;;;;11.98;6.90;;;;;;;10.74;100.00;102098.31;5052795;28;20036;-51
2023/09/14 04:02:45;;;;;;;10.38;6.70;;;;;;;10.64;100.00;102084.44;5051383;28;20033;-51
2023/09/14 04:05:15;;;;;;;10.57;7.00;;;;;;;10.97;100.00;102140.19;5051381;28;20056;-46
2023/09/14 04:07:41;;;;;;;12.25;6.75;;;;;;;10.80;100.00;102118.47;5051065;28;20120;-53
2023/09/14 04:10:10;;;;;;;10.38;7.35;;;;;;;10.91;100.00;102140.25;5051202;28;20127;-52
2023/09/14 04:12:38;;;;;;;8.00;6.57;;;;;;;10.80;100.00;102121.94;5052359;28;20396;-48
2023/09/14 04:15:04;;;;;;;12.00;6.63;;;;;;;10.51;100.00;102074.91;5051161;28;20532;-53
2023/09/14 04:17:30;;;;;;;13.35;7.07;;;;;;;10.87;100.00;102135.91;5051951;28;20028;-52
2023/09/14 04:19:55;;;;;;;12.43;7.20;;;;;;;10.87;100.00;102135.91;5052367;28;20128;-48
2023/09/14 04:22:20;;;;;;;11.45;7.00;;;;;;;10.82;100.00;102135.13;5052452;28;20033;-50
2023/09/14 04:24:46;;;;;;;9.45;6.97;;;;;;;10.79;100.00;102116.72;5050705;28;20395;-50
2023/09/14 04:27:11;;;;;;;12.55;7.38;;;;;;;10.85;100.00;102127.16;5052357;28;20025;-49
2023/09/14 04:29:36;;;;;;;10.20;6.60;;;;;;;10.86;100.00;102139.47;5052227;28;20033;-49
2023/09/14 04:32:03;;;;;;;9.27;6.82;;;;;;;10.86;100.00;102132.41;5050736;28;20157;-48
2023/09/14 04:34:28;;;;;;;9.65;6.60;;;;;;;10.88;100.00;102135.91;5051692;28;20029;-51
2023/09/14 04:36:54;;;;;;;11.00;6.38;;;;;;;10.52;100.00;102071.41;5051978;28;20040;-49
2023/09/14 04:39:19;;;;;;;13.50;8.45;;;;;;;10.86;100.00;102135.03;5049331;28;20528;-49
2023/09/14 04:41:44;;;;;;;12.07;8.38;;;;;;;10.87;100.00;102131.53;5051675;28;20053;-50
2023/09/14 04:44:09;;;;;;;16.42;9.07;;;;;;;10.89;100.00;102139.38;5050158;28;20036;-45
2023/09/14 04:46:35;;;;;;;18.00;8.77;;;;;;;10.86;100.00;102131.56;5051674;28;20029;-45
2023/09/14 04:49:00;;;;;;;12.00;7.88;;;;;;;10.96;100.00;102146.34;5050440;28;20116;-49
2023/09/14 04:51:26;;;;;;;12.07;7.60;;;;;;;10.49;100.00;102065.31;5051930;28;20396;-47
2023/09/14 04:53:52;;;;;;;13.02;7.20;;;;;;;10.53;100.00;102082.81;5051648;28;20079;-48
2023/09/14 04:56:18;;;;;;;10.18;6.90;;;;;;;10.51;100.00;102079.31;5050416;28;20033;-47
2023/09/14 04:58:43;;;;;;;10.05;7.38;;;;;;;10.92;100.00;102150.75;5050433;28;20033;-46
2023/09/14 05:01:08;;;;;;;13.80;7.32;;;;;;;10.66;100.00;102106.34;5051658;28;20446;-52
2023/09/14 05:03:34;;;;;;;13.13;7.15;;;;;;;10.47;100.00;102075.88;5051587;28;20094;-49
2023/09/14 05:05:59;;;;;;;11.70;7.63;;;;;;;10.82;100.00;102137.75;5051864;28;20049;-49
2023/09/14 05:08:25;;;;;;;13.27;7.47;;;;;;;10.56;100.00;102085.41;5051673;28;20393;-50
2023/09/14 05:10:51;;;;;;;13.98;7.35;;;;;;;10.74;100.00;102111.47;5051844;28;20040;-49
2023/09/14 05:13:18;;;;;;;12.90;8.27;;;;;;;10.89;100.00;102145.53;5050358;28;20040;-48
2023/09/14 05:15:44;;;;;;;11.68;7.50;;;;;;;10.91;100.00;102143.78;5049905;28;20040;-49
2023/09/14 05:18:10;;;;;;;13.07;7.93;;;;;;;10.63;100.00;102100.22;5050088;28;20041;-48
2023/09/14 05:20:35;;;;;;;12.30;7.40;;;;;;;10.91;100.00;102149.03;5051199;28;20052;-46
2023/09/14 05:23:00;;;;;;;9.02;7.45;;;;;;;10.85;100.00;102132.44;5050365;28;20044;-52
2023/09/14 05:25:27;;;;;;;14.02;8.23;;;;;;;10.88;100.00;102127.13;5051460;28;20033;-47
2023/09/14 05:27:53;;;;;;;12.60;7.28;;;;;;;10.89;100.00;102128.84;5050350;28;20088;-46
2023/09/14 05:30:23;;;;;;;12.80;6.88;;;;;;;10.98;100.00;102147.19;5047426;28;20050;-51
2023/09/14 05:32:49;;;;;;;10.20;6.50;;;;;;;11.01;100.00;102147.13;5058679;28;20304;-47
2023/09/14 05:35:15;;;;;;;12.88;6.85;;;;;;;10.85;100.00;102112.25;5071394;28;20114;-45
2023/09/14 05:37:40;;;;;;;15.23;6.95;;;;;;;10.88;100.00;102149.09;5052000;28;20033;-47
2023/09/14 05:40:12;;;;;;;11.27;6.70;;;;;;;10.95;100.00;102155.13;5054256;28;20140;-47
2023/09/14 05:42:38;;;;;;;10.30;6.93;;;;;;;10.83;100.00;102124.53;5041515;28;20049;-47
2023/09/14 05:45:08;;;;;;;14.77;7.82;;;;;;;11.03;100.00;102155.91;5054000;28;20373;-47
2023/09/14 05:47:34;;;;;;;14.75;7.20;;;;;;;10.72;100.00;102090.44;5030405;28;20033;-48
2023/09/14 05:50:00;;;;;;;12.20;6.72;;;;;;;11.08;100.00;102135.63;5046900;28;20037;-47
2023/09/14 05:52:25;;;;;;;11.35;6.57;;;;;;;10.79;100.00;102087.75;5049278;28;20033;-49
2023/09/14 05:54:50;;;;;;;9.68;6.75;;;;;;;11.28;100.00;102175.75;5041788;28;20040;-48
2023/09/14 05:57:16;;;;;;;13.20;7.35;;;;;;;10.95;100.00;102091.88;5051131;28;20106;-50
2023/09/14 05:59:41;;;;;;;12.93;7.43;;;;;;;11.44;100.00;102172.00;5052773;28;20044;-50
2023/09/14 06:02:08;;;;;;;19.55;7.70;;;;;;;11.51;100.00;102160.47;5050829;28;20487;-48
2023/09/14 06:04:33;;;;;;;15.93;7.30;;;;;;;11.45;100.00;102136.81;5049667;28;20524;-49
2023/09/14 06:06:58;;;;;;;17.70;7.45;;;;;;;11.36;100.00;102112.38;5048926;28;20183;-48
2023/09/14 06:09:26;;;;;;;14.10;7.63;;;;;;;11.46;100.00;102114.84;5050216;28;20128;-48
2023/09/14 06:11:51;;;;;;;17.05;8.38;;;;;;;11.45;100.00;102099.91;5047748;28;20160;-47
2023/09/14 06:14:17;;;;;;;16.10;7.47;;;;;;;11.92;100.00;102177.44;5048634;28;20120;-48
2023/09/14 06:16:42;;;;;;;14.05;7.90;;;;;;;11.75;100.00;102124.97;5046909;28;20080;-47
2023/09/14 06:19:07;;;;;;;13.45;7.50;;;;;;;12.13;100.00;102182.34;5047696;28;20092;-51
2023/09/14 06:21:33;;;;;;;12.18;7.60;;;;;;;12.08;100.00;102155.19;5048844;28;20088;-46
2023/09/14 06:23:59;;;;;;;19.75;8.00;;;;;;;12.17;100.00;102171.69;5048705;28;20037;-51
2023/09/14 06:26:27;;;;;;;14.60;8.32;;;;;;;12.23;100.00;102168.09;5050204;28;20037;-48
2023/09/14 06:28:52;;;;;;;11.65;7.70;;;;;;;12.07;100.00;102127.03;5049531;28;20537;-46
2023/09/14 06:31:18;;;;;;;10.05;6.97;;;;;;;11.97;100.00;102104.34;5052931;28;20048;-47
2023/09/14 06:33:44;;;;;;;13.15;7.78;;;;;;;12.37;100.00;102176.63;5051471;28;20025;-45
2023/09/14 06:36:09;;;;;;;16.75;8.20;;;;;;;12.38;100.00;102160.75;5052421;28;20041;-49
2023/09/14 06:38:34;;;;;;;16.67;8.13;;;;;;;12.51;100.00;102160.53;5051908;28;20044;-49
2023/09/14 06:41:00;;;;;;;13.55;7.55;;;;;;;11.88;100.00;102034.13;5050206;28;20043;-45
2023/09/14 06:43:25;;;;;;;14.10;8.07;;;;;;;12.70;100.00;102173.34;5050635;28;20048;-46
2023/09/14 06:45:50;;;;;;;13.95;8.65;;;;;;;12.60;100.00;102152.41;5044397;28;20047;-49
2023/09/14 06:48:16;;;;;;;11.70;7.85;;;;;;;12.50;100.00;102108.59;5047718;28;20512;-46
2023/09/14 06:50:41;;;;;;;13.82;8.20;;;;;;;12.52;100.00;102094.44;5032270;28;20457;-50
2023/09/14 06:53:08;;;;;;;16.48;7.75;;;;;;;12.65;100.00;102109.16;5047183;28;20045;-47
2023/09/14 06:55:37;;;;;;;9.57;7.03;;;;;;;13.03;100.00;102161.19;5037562;28;20032;-47
2023/09/14 06:58:03;;;;;;;14.27;8.10;;;;;;;13.09;100.00;102157.56;5051619;28;20043;-47
2023/09/14 07:00:28;;;;;;;17.13;8.85;;;;;;;12.81;100.00;102105.28;5051006;28;20128;-51
2023/09/14 07:02:53;;;;;;;21.20;7.72;;;;;;;12.81;100.00;102088.59;5048693;28;20401;-46
2023/09/14 07:05:19;;;;;;;14.50;8.20;;;;;;;13.24;100.00;102166.06;5051194;28;20095;-49
2023/09/14 07:07:44;;;;;;;14.88;7.95;;;;;;;12.98;100.00;102094.34;5050361;28;20090;-46
2023/09/14 07:10:10;;;;;;;15.48;8.18;;;;;;;13.41;100.00;102160.38;5051703;28;20091;-48
2023/09/14 07:12:36;;;;;;;15.98;9.32;;;;;;;13.58;100.00;102160.84;5050593;28;20033;-46
2023/09/14 07:15:02;;;;;;;12.98;7.97;;;;;;;13.65;100.00;102143.94;5051126;28;20028;-49
2023/09/14 07:17:27;;;;;;;12.75;8.05;;;;;;;13.85;100.00;102151.38;5049769;28;20056;-46
2023/09/14 07:19:53;;;;;;;13.35;7.82;;;;;;;13.94;100.00;102154.66;5048024;28;20069;-45
2023/09/14 07:22:19;;;;;;;12.70;7.28;;;;;;;14.08;100.00;102139.28;5044068;28;20375;-48
2023/09/14 07:24:44;;;;;;;15.27;7.60;;;;;;;13.75;100.00;102070.47;5066139;28;20036;-47
2023/09/14 07:27:10;;;;;;;14.52;7.93;;;;;;;14.04;100.00;102092.59;5070197;28;20397;-46
2023/09/14 07:29:41;;;;;;;12.43;7.45;;;;;;;14.49;100.00;102142.63;5060988;28;20044;-47
2023/09/14 07:32:06;;;;;;;11.73;7.07;;;;;;;14.65;100.00;102151.91;5069872;28;20430;-47
2023/09/14 07:34:32;;;;;;;15.20;7.35;;;;;;;14.82;100.00;102146.97;5051258;28;20055;-46
2023/09/14 07:36:57;;;;;;;11.23;6.95;;;;;;;14.59;100.00;102099.06;5048582;28;20602;-47
2023/09/14 07:39:23;;;;;;;13.57;7.85;;;;;;;14.75;100.00;102102.13;5041761;28;20069;-46
2023/09/14 07:41:48;;;;;;;9.73;6.50;;;;;;;15.28;100.00;102153.53;5046721;28;20476;-49
2023/09/14 07:44:13;;;;;;;12.02;6.80;;;;;;;15.46;100.00;102164.44;5052102;28;20041;-48
2023/09/14 07:46:42;;;;;;;12.73;6.40;;;;;;;15.39;100.00;102127.53;5144895;23;20053;-51
2023/09/14 07:49:08;;;;;;;8.43;5.95;;;;;;;15.53;100.00;102110.28;5013628;28;20111;-48
2023/09/14 07:51:33;;;;;;;11.65;6.13;;;;;;;15.75;100.00;102121.06;5030851;28;20045;-50
2023/09/14 07:53:59;;;;;;;10.30;5.85;;;;;;;16.37;100.00;102172.03;5026495;28;20072;-47
2023/09/14 07:56:25;;;;;;;11.05;5.85;;;;;;;16.66;100.00;102174.56;4993729;28;20034;-49
2023/09/14 07:58:52;;;;;;;9.68;5.40;;;;;;;16.76;100.00;102161.75;5010503;28;20523;-46
2023/09/14 08:01:18;;;;;;;9.80;5.10;;;;;;;16.75;100.00;102125.47;5010913;28;20195;-46
2023/09/14 08:03:44;;;;;;;12.68;6.40;;;;;;;17.34;100.00;102187.88;5011095;28;20556;-46
2023/09/14 08:06:09;;;;;;;10.85;4.80;;;;;;;17.63;100.00;102196.56;5010980;28;20041;-50
2023/09/14 08:08:35;;;;;;;9.57;5.28;;;;;;;17.96;100.00;102200.50;4992249;28;20037;-47
2023/09/14 08:11:00;;;;;;;8.10;4.68;;;;;;;18.04;100.00;102146.91;5010399;28;20070;-45
2023/09/14 08:13:25;;;;;;;10.50;5.80;;;;;;;18.50;100.00;102146.66;5010823;28;20470;-47
2023/09/14 08:15:51;;;;;;;9.30;4.40;;;;;;;19.43;100.00;102220.66;5010762;28;20046;-47
2023/09/14 08:18:18;;;;;;;10.20;4.97;;;;;;;19.66;100.00;102177.66;5010764;28;20474;-45
2023/09/14 08:20:43;;;;;;;11.55;4.78;;;;;;;20.50;100.00;102233.13;5010301;28;20061;-46
2023/09/14 08:23:16;;;;;;;8.05;4.57;;;;;;;20.83;100.00;102226.03;5009251;28;20111;-47
2023/09/14 08:25:43;;;;;;;10.68;5.00;;;;;;;21.02;100.00;102236.59;5013671;28;20046;-46
2023/09/14 08:28:13;;;;;;;9.77;5.53;;;;;;;20.63;100.00;102176.25;5010668;28;20034;-51
2023/09/14 08:30:38;;;;;;;9.48;4.65;;;;;;;20.80;100.00;102225.31;4992863;28;20030;-45
2023/09/14 08:33:04;;;;;;;8.70;4.75;;;;;;;20.96;100.00;102227.06;4992882;28;20037;-51
2023/09/14 08:35:31;;;;;;;9.25;4.95;;;;;;;21.22;100.00;102229.22;5009919;28;20128;-50
2023/09/14 08:37:57;;;;;;;7.65;4.82;;;;;;;21.56;100.00;102222.00;5010457;28;20093;-47
2023/09/14 08:40:23;;;;;;;6.82;4.68;;;;;;;22.00;100.00;102236.47;4993010;28;20034;-57
2023/09/14 08:42:51;;;;;;;7.25;4.45;;;;;;;22.48;100.00;102240.72;4992428;28;20439;-47
2023/09/14 08:45:23;;;;;;;7.80;4.95;;;;;;;22.37;100.00;102186.84;5010267;28;20037;-46
2023/09/14 08:47:49;;;;;;;9.02;5.60;;;;;;;22.40;100.00;102187.53;5010114;28;20063;-47
2023/09/14 08:50:17;;;;;;;8.38;4.85;;;;;;;23.02;100.00;102247.28;5009584;28;20486;-48
2023/09/14 08:52:43;;;;;;;6.95;4.60;;;;;;;22.97;100.00;102185.78;5009708;28;20048;-49
2023/09/14 08:55:10;;;;;;;5.63;4.20;;;;;;;23.40;100.00;102201.91;4992423;28;20073;-49
2023/09/14 08:57:36;;;;;;;8.30;4.72;;;;;;;23.95;100.00;102253.78;5008723;28;20064;-47
2023/09/14 09:00:08;;;;;;;11.90;4.30;;;;;;;23.91;100.00;102243.31;5009881;28;20033;-49
2023/09/14 09:02:35;;;;;;;5.45;3.80;;;;;;;23.23;100.00;102204.78;4993114;28;20068;-48
2023/09/14 09:05:02;;;;;;;6.35;4.32;;;;;;;23.61;100.00;102256.97;4992152;28;20366;-46
2023/09/14 09:07:28;;;;;;;8.20;4.00;;;;;;;23.70;100.00;102207.13;5009997;28;20438;-48
2023/09/14 09:09:53;;;;;;;5.30;3.40;;;;;;;24.25;100.00;102239.28;4960190;28;20391;-47
2023/09/14 09:12:18;;;;;;;6.15;3.65;;;;;;;24.37;100.00;102262.69;4975715;28;20033;-52
2023/09/14 09:14:44;;;;;;;5.65;3.83;;;;;;;24.31;100.00;102210.16;5009360;28;20030;-52
2023/09/14 09:17:09;;;;;;;9.20;3.78;;;;;;;24.91;100.00;102256.22;5009391;28;20045;-47
2023/09/14 09:19:48;;;;;;;5.50;3.50;;;;;;;24.97;100.00;102192.97;5009986;28;20073;-46
2023/09/14 09:22:17;;;;;;;5.20;3.58;;;;;;;25.67;100.00;102261.53;4991919;28;20029;-47
2023/09/14 09:24:42;;;;;;;6.80;3.85;;;;;;;25.65;100.00;102214.94;4991878;28;20096;-48
2023/09/14 09:27:28;;;;;;;6.63;3.22;;;;;;;26.39;100.00;102270.50;5009380;28;20042;-48
2023/09/14 09:30:00;;;;;;;5.88;3.38;;;;;;;26.45;100.00;102261.94;5008664;28;20057;-47
2023/09/14 09:32:25;;;;;;;7.63;3.88;;;;;;;26.46;100.00;102274.47;5009624;28;20034;-49
2023/09/14 09:34:50;;;;;;;5.45;3.67;;;;;;;26.72;100.00;102255.28;4992053;28;20049;-49
2023/09/14 09:37:17;;;;;;;6.50;3.38;;;;;;;26.53;100.00;102208.22;5009120;28;20053;-52
2023/09/14 09:39:43;;;;;;;9.60;3.65;;;;;;;26.71;100.00;102275.16;4967318;28;20062;-46
2023/09/14 09:42:13;;;;;;;5.15;3.85;;;;;;;26.58;100.00;102281.63;4950965;28;20391;-47
2023/09/14 09:44:39;;;;;;;5.72;3.40;;;;;;;27.10;100.00;102279.31;4949742;29;20491;-47
2023/09/14 09:47:04;;;;;;;5.85;3.58;;;;;;;26.78;100.00;102225.09;4950596;28;20055;-47
2023/09/14 09:49:30;;;;;;;4.13;3.53;;;;;;;25.44;100.00;102224.56;4966024;28;20046;-53
2023/09/14 09:51:57;;;;;;;7.20;4.00;;;;;;;24.54;100.00;102262.41;4965825;28;20534;-47
2023/09/14 09:54:24;;;;;;;8.13;3.95;;;;;;;24.27;100.00;102240.91;4950849;28;20032;-47
2023/09/14 09:56:51;;;;;;;5.25;2.90;;;;;;;24.41;100.00;102262.38;4951089;28;20496;-48
2023/09/14 09:59:17;;;;;;;5.25;3.30;;;;;;;23.48;100.00;102200.44;4951081;28;20523;-49
2023/09/14 10:01:46;;;;;;;6.53;3.58;;;;;;;23.95;100.00;102252.94;4966139;28;20038;-44
2023/09/14 10:04:13;;;;;;;6.07;3.47;;;;;;;24.02;100.00;102187.00;4968674;28;20498;-48
2023/09/14 10:06:40;;;;;;;6.20;3.05;;;;;;;25.31;100.00;102254.22;4954740;28;20478;-49
2023/09/14 10:09:11;;;;;;;5.60;3.63;;;;;;;25.27;100.00;102255.44;4954614;28;20039;-47
2023/09/14 10:11:37;;;;;;;7.72;3.47;;;;;;;24.44;100.00;102261.28;4954817;28;20078;-48
2023/09/14 10:14:03;;;;;;;7.38;3.25;;;;;;;23.28;100.00;102249.19;4953702;29;20098;-48
2023/09/14 10:16:35;;;;;;;7.88;3.67;;;;;;;22.37;100.00;102173.44;4969363;28;20428;-46
2023/09/14 10:19:01;;;;;;;8.45;4.55;;;;;;;21.88;100.00;102196.09;4953367;29;20031;-51
2023/09/14 10:21:28;;;;;;;11.35;7.68;;;;;;;21.30;100.00;102173.47;4954676;28;20121;-47
2023/09/14 10:23:53;;;;;;;5.97;3.60;;;;;;;21.93;100.00;102237.75;4954236;28;20066;-45
2023/09/14 10:26:19;;;;;;;8.18;4.18;;;;;;;23.15;100.00;102201.69;4968976;28;20031;-46
2023/09/14 10:28:46;;;;;;;6.00;4.13;;;;;;;24.77;100.00;102191.66;4954355;28;20031;-51
2023/09/14 10:31:13;;;;;;;3.83;3.30;;;;;;;25.15;100.00;102146.72;4954313;28;20463;-50
2023/09/14 10:33:41;;;;;;;8.63;3.33;;;;;;;26.36;100.00;102241.06;4954285;28;20035;-48
2023/09/14 10:36:07;;;;;;;8.85;3.42;;;;;;;26.71;100.00;102258.09;4968509;28;20046;-50
2023/09/14 10:38:32;;;;;;;7.60;2.92;;;;;;;26.15;100.00;102236.31;4952960;29;20031;-47
2023/09/14 10:40:58;;;;;;;3.70;3.30;;;;;;;26.29;100.00;102262.28;4952787;29;20126;-51
2023/09/14 10:43:23;;;;;;;6.53;3.88;;;;;;;25.33;100.00;102243.34;4954266;28;20495;-44
2023/09/14 10:45:50;;;;;;;5.75;3.58;;;;;;;24.35;100.00;102241.25;4954071;28;20518;-48
2023/09/14 10:48:18;;;;;;;6.88;3.78;;;;;;;24.08;100.00;102174.00;4952544;29;20047;-48
2023/09/14 10:50:44;;;;;;;7.05;4.07;;;;;;;25.52;100.00;102224.91;4953547;28;20027;-50
2023/09/14 10:53:09;;;;;;;7.00;3.45;;;;;;;26.88;100.00;102244.19;4952467;29;20479;-51
2023/09/14 10:55:35;;;;;;;8.75;3.47;;;;;;;27.85;100.00;102237.09;4953144;28;20126;-50
2023/09/14 10:58:01;;;;;;;6.80;3.67;;;;;;;28.75;100.00;102245.75;4953124;28;20063;-48
2023/09/14 11:00:31;;;;;;;7.53;3.17;;;;;;;29.20;100.00;102254.38;4968027;28;20479;-46
2023/09/14 11:02:57;;;;;;;5.57;3.13;;;;;;;29.35;100.00;102248.50;4952029;28;20069;-47
2023/09/14 11:05:28;;;;;;;3.50;3.05;;;;;;;29.23;100.00;102222.47;4952477;28;20035;-49
2023/09/14 11:08:03;;;;;;;4.05;2.50;;;;;;;29.73;100.00;102249.59;4951979;29;20039;-48